createdAt,value
2018-08-22T00:02:06.769Z,920.73
2018-08-22T00:04:35.313Z,931.40
2018-08-22T00:07:03.852Z,924.83
2018-08-22T00:09:32.363Z,927.30
2018-08-22T00:12:00.889Z,927.13
2018-08-22T00:14:29.433Z,913.30
2018-08-22T00:16:57.982Z,913.13
2018-08-22T00:19:26.530Z,933.00
2018-08-22T00:21:55.092Z,952.17
2018-08-22T00:24:23.595Z,944.77
2018-08-22T00:26:52.158Z,957.70
2018-08-22T00:29:20.804Z,952.50
2018-08-22T00:31:49.259Z,953.57
2018-08-22T00:34:17.796Z,951.80
2018-08-22T00:36:46.368Z,940.83
2018-08-22T00:39:14.924Z,965.50
2018-08-22T00:41:43.446Z,948.80
2018-08-22T00:44:11.992Z,967.13
2018-08-22T00:46:40.476Z,999.77
2018-08-22T00:49:09.015Z,1020.13
2018-08-22T00:51:37.510Z,1021.33
2018-08-22T00:54:06.058Z,1033.80
2018-08-22T00:56:34.559Z,1006.20
2018-08-22T00:59:03.080Z,991.03
2018-08-22T01:01:31.617Z,975.27
2018-08-22T01:04:00.112Z,986.60
2018-08-22T01:06:28.608Z,971.67
2018-08-22T01:08:57.182Z,945.80
2018-08-22T01:11:25.903Z,934.53
2018-08-22T01:13:54.477Z,935.93
2018-08-22T01:16:22.996Z,916.27
2018-08-22T01:18:51.723Z,913.43
2018-08-22T01:21:20.260Z,902.53
2018-08-22T01:23:48.785Z,893.30
2018-08-22T01:26:17.292Z,903.43
2018-08-22T01:28:45.883Z,899.17
2018-08-22T01:31:14.433Z,885.10
2018-08-22T01:33:42.939Z,891.43
2018-08-22T01:36:11.465Z,878.43
2018-08-22T01:38:39.979Z,863.53
2018-08-22T01:41:08.457Z,873.97
2018-08-22T01:43:37.003Z,895.00
2018-08-22T01:46:05.548Z,871.23
2018-08-22T01:48:34.044Z,880.33
2018-08-22T01:51:02.515Z,891.20
2018-08-22T01:53:31.032Z,887.90
2018-08-22T01:55:59.543Z,884.50
2018-08-22T01:58:28.019Z,900.47
2018-08-22T02:00:56.565Z,900.37
2018-08-22T02:03:25.064Z,919.83
2018-08-22T02:05:53.544Z,935.10
2018-08-22T02:08:22.060Z,905.17
2018-08-22T02:10:50.558Z,925.83
2018-08-22T02:13:19.132Z,936.33
2018-08-22T02:15:47.644Z,900.00
2018-08-22T02:18:16.172Z,931.97
2018-08-22T02:20:44.776Z,931.17
2018-08-22T02:23:13.503Z,957.60
2018-08-22T02:25:42.124Z,977.73
2018-08-22T02:28:10.890Z,974.93
2018-08-22T02:30:39.467Z,974.47
2018-08-22T02:33:07.993Z,971.37
2018-08-22T02:35:36.567Z,968.03
2018-08-22T02:38:05.220Z,956.90
2018-08-22T02:40:33.739Z,977.03
2018-08-22T02:43:02.388Z,976.07
2018-08-22T02:45:31.139Z,983.17
2018-08-22T02:47:59.667Z,984.30
2018-08-22T02:50:28.190Z,974.87
2018-08-22T02:52:56.753Z,1012.17
2018-08-22T02:55:25.293Z,1009.80
2018-08-22T02:57:54.008Z,997.97
2018-08-22T03:00:22.553Z,1007.90
2018-08-22T03:02:51.106Z,1012.83
2018-08-22T03:05:19.665Z,992.33
2018-08-22T03:07:48.160Z,1003.30
2018-08-22T03:10:16.658Z,1016.67
2018-08-22T03:12:45.214Z,987.87
2018-08-22T03:15:13.743Z,994.13
2018-08-22T03:17:42.322Z,1007.17
2018-08-22T03:20:10.856Z,1000.53
2018-08-22T03:22:39.376Z,1007.30
2018-08-22T03:25:07.896Z,993.33
2018-08-22T03:27:36.405Z,989.40
2018-08-22T03:30:05.085Z,1000.93
2018-08-22T03:32:33.652Z,983.23
2018-08-22T03:35:02.341Z,1001.10
2018-08-22T03:37:30.917Z,1001.37
2018-08-22T03:39:59.405Z,1021.50
2018-08-22T03:42:28.164Z,1009.90
2018-08-22T03:44:56.704Z,999.90
2018-08-22T03:47:25.241Z,993.53
2018-08-22T03:49:53.836Z,1001.50
2018-08-22T03:52:22.370Z,987.70
2018-08-22T03:54:51.241Z,995.17
2018-08-22T03:57:19.958Z,1002.93
2018-08-22T03:59:48.604Z,975.97
2018-08-22T04:02:17.125Z,969.57
2018-08-22T04:04:45.979Z,958.97
2018-08-22T04:07:14.452Z,954.30
2018-08-22T04:09:42.967Z,961.50
2018-08-22T04:12:11.521Z,966.27
2018-08-22T04:14:40.066Z,963.13
2018-08-22T04:17:08.545Z,936.40
2018-08-22T04:19:37.217Z,935.10
2018-08-22T04:22:05.753Z,916.83
2018-08-22T04:24:34.273Z,910.40
2018-08-22T04:27:02.782Z,912.30
2018-08-22T04:29:31.367Z,859.50
2018-08-22T04:31:59.993Z,854.00
2018-08-22T04:34:28.776Z,855.50
2018-08-22T04:36:57.719Z,849.67
2018-08-22T04:39:26.593Z,823.97
2018-08-22T04:41:55.156Z,793.17
2018-08-22T04:44:23.682Z,763.73
2018-08-22T04:46:52.250Z,733.83
2018-08-22T04:49:20.793Z,692.57
2018-08-22T04:51:49.324Z,646.33
2018-08-22T04:54:17.805Z,635.37
2018-08-22T04:56:46.349Z,596.07
2018-08-22T04:59:14.840Z,541.37
2018-08-22T05:01:43.342Z,508.07
2018-08-22T05:04:11.864Z,493.07
2018-08-22T05:06:40.389Z,472.67
2018-08-22T05:09:09.552Z,438.83
2018-08-22T05:11:38.227Z,442.53
2018-08-22T05:14:06.711Z,440.77
2018-08-22T05:16:35.272Z,437.50
2018-08-22T05:19:03.878Z,456.57
2018-08-22T05:21:32.418Z,463.90
2018-08-22T05:24:01.021Z,484.03
2018-08-22T05:26:29.559Z,492.40
2018-08-22T05:28:58.429Z,505.57
2018-08-22T05:31:27.001Z,516.90
2018-08-22T05:33:55.639Z,527.33
2018-08-22T05:36:24.158Z,534.23
2018-08-22T05:38:52.711Z,561.77
2018-08-22T05:41:21.318Z,560.63
2018-08-22T05:43:49.888Z,566.20
2018-08-22T05:46:18.597Z,602.40
2018-08-22T05:48:47.178Z,630.07
2018-08-22T05:51:15.721Z,653.27
2018-08-22T05:53:44.368Z,680.87
2018-08-22T05:56:12.878Z,688.27
2018-08-22T05:58:41.439Z,706.67
2018-08-22T06:01:09.973Z,731.50
2018-08-22T06:03:38.631Z,761.80
2018-08-22T06:06:07.798Z,812.77
2018-08-22T06:08:36.326Z,834.90
2018-08-22T06:11:04.908Z,891.83
2018-08-22T06:13:33.696Z,918.33
2018-08-22T06:16:02.309Z,924.20
2018-08-22T06:18:31.021Z,924.33
2018-08-22T06:20:59.761Z,954.03
2018-08-22T06:23:28.333Z,950.63
2018-08-22T06:25:57.002Z,939.33
2018-08-22T06:28:25.560Z,962.43
2018-08-22T06:30:54.130Z,943.80
2018-08-22T06:33:22.675Z,935.10
2018-08-22T06:35:51.217Z,925.40
2018-08-22T06:38:19.744Z,925.77
2018-08-22T06:40:48.369Z,923.00
2018-08-22T06:43:16.946Z,908.23
2018-08-22T06:45:45.608Z,930.87
2018-08-22T06:48:14.141Z,924.67
2018-08-22T06:50:42.680Z,953.83
2018-08-22T06:53:11.257Z,947.83
2018-08-22T06:55:39.833Z,956.40
2018-08-22T06:58:08.383Z,961.13
2018-08-22T07:00:36.994Z,970.90
2018-08-22T07:03:05.609Z,1015.23
2018-08-22T07:05:34.140Z,1014.47
2018-08-22T07:08:02.762Z,994.83
2018-08-22T07:10:31.411Z,936.90
2018-08-22T07:12:59.915Z,881.57
2018-08-22T07:15:28.515Z,812.37
2018-08-22T07:17:57.058Z,821.50
2018-08-22T07:20:25.618Z,812.83
2018-08-22T07:22:54.246Z,750.23
2018-08-22T07:25:22.793Z,733.63
2018-08-22T07:27:51.353Z,745.43
2018-08-22T07:30:19.975Z,729.60
2018-08-22T07:32:48.723Z,767.33
2018-08-22T07:35:17.366Z,821.97
2018-08-22T07:37:45.970Z,852.00
2018-08-22T07:40:14.612Z,912.77
2018-08-22T07:42:43.162Z,941.97
2018-08-22T07:45:11.716Z,945.07
2018-08-22T07:47:40.229Z,998.90
2018-08-22T07:50:08.822Z,1046.30
2018-08-22T07:52:38.397Z,1084.80
2018-08-22T07:55:06.954Z,1109.30
2018-08-22T07:57:35.590Z,1133.37
2018-08-22T08:00:04.289Z,1143.13
2018-08-22T08:02:32.815Z,1169.53
2018-08-22T08:05:01.374Z,1202.67
2018-08-22T08:07:29.977Z,1200.93
2018-08-22T08:09:58.754Z,1194.77
2018-08-22T08:12:32.644Z,1143.23
2018-08-22T08:15:04.225Z,1210.97
2018-08-22T08:17:33.271Z,1208.37
2018-08-22T08:20:01.975Z,1254.70
2018-08-22T08:22:30.529Z,1280.17
2018-08-22T08:24:59.165Z,1352.37
2018-08-22T08:27:27.750Z,1396.30
2018-08-22T08:29:56.296Z,1368.87
2018-08-22T08:32:24.865Z,1329.27
2018-08-22T08:34:53.650Z,1359.37
2018-08-22T08:37:22.186Z,1367.03
2018-08-22T08:39:50.748Z,1394.63
2018-08-22T08:42:19.326Z,1361.80
2018-08-22T08:44:47.857Z,1328.20
2018-08-22T08:47:16.505Z,1332.60
2018-08-22T08:49:45.382Z,1344.80
2018-08-22T08:52:13.906Z,1290.60
2018-08-22T08:54:42.456Z,1210.60
2018-08-22T08:57:11.447Z,1164.77
2018-08-22T08:59:40.004Z,1198.20
2018-08-22T09:02:08.697Z,1111.93
2018-08-22T09:04:37.217Z,1164.07
2018-08-22T09:07:05.833Z,1129.87
2018-08-22T09:09:34.408Z,1250.63
2018-08-22T09:12:03.030Z,1241.37
2018-08-22T09:14:31.635Z,1219.80
2018-08-22T09:17:00.480Z,1223.60
2018-08-22T09:19:29.066Z,1335.97
2018-08-22T09:21:57.620Z,1490.77
2018-08-22T09:24:26.226Z,1510.40
2018-08-22T09:26:54.724Z,1559.30
2018-08-22T09:29:23.311Z,1616.47
2018-08-22T09:31:51.866Z,1592.53
2018-08-22T09:34:20.426Z,1634.10
2018-08-22T09:36:49.026Z,1690.20
2018-08-22T09:39:17.585Z,1647.83
2018-08-22T09:41:46.104Z,1637.53
2018-08-22T09:44:14.703Z,1587.77
2018-08-22T09:46:43.258Z,1671.63
2018-08-22T09:49:11.844Z,1556.03
2018-08-22T09:51:40.734Z,1569.30
2018-08-22T09:54:09.258Z,1394.27
2018-08-22T09:56:37.861Z,1353.87
2018-08-22T09:59:06.369Z,1350.60
2018-08-22T10:01:40.309Z,1327.53
2018-08-22T10:04:08.872Z,1197.93
2018-08-22T10:06:39.972Z,1159.27
2018-08-22T10:09:13.412Z,1047.83
2018-08-22T10:11:41.995Z,987.23
2018-08-22T10:14:10.532Z,946.03
2018-08-22T10:16:39.042Z,894.87
2018-08-22T10:19:07.623Z,910.83
2018-08-22T10:21:36.221Z,900.80
2018-08-22T10:24:04.810Z,927.00
2018-08-22T10:26:33.383Z,944.27
2018-08-22T10:29:01.862Z,932.60
2018-08-22T10:31:30.417Z,944.10
2018-08-22T10:33:58.883Z,947.27
2018-08-22T10:36:28.231Z,925.17
2018-08-22T10:38:56.724Z,949.43
2018-08-22T10:41:25.236Z,929.33
2018-08-22T10:43:53.699Z,919.57
2018-08-22T10:46:22.162Z,920.60
2018-08-22T10:48:50.943Z,920.13
2018-08-22T10:51:19.477Z,909.23
2018-08-22T10:53:48.033Z,906.67
2018-08-22T10:56:16.530Z,902.77
2018-08-22T10:58:45.066Z,895.73
2018-08-22T11:01:13.626Z,880.43
2018-08-22T11:03:42.127Z,872.27
2018-08-22T11:06:10.660Z,857.83
2018-08-22T11:08:39.227Z,839.13
2018-08-22T11:11:07.756Z,837.13
2018-08-22T11:13:36.282Z,842.77
2018-08-22T11:16:04.846Z,832.50
2018-08-22T11:18:33.390Z,835.83
2018-08-22T11:21:13.317Z,820.50
2018-08-22T11:23:53.085Z,813.23
2018-08-22T11:26:32.888Z,799.73
2018-08-22T11:29:12.480Z,808.37
2018-08-22T11:31:52.188Z,795.67
2018-08-22T11:34:31.840Z,785.50
2018-08-22T11:37:11.391Z,791.50
2018-08-22T11:39:40.041Z,803.23
2018-08-22T11:42:08.609Z,815.37
2018-08-22T11:44:37.108Z,796.90
2018-08-22T11:47:05.760Z,816.57
2018-08-22T11:49:34.286Z,811.60
2018-08-22T11:52:02.835Z,810.50
2018-08-22T11:54:31.862Z,788.53
2018-08-22T11:57:00.876Z,804.40
2018-08-22T11:59:29.530Z,813.53
2018-08-22T12:01:58.146Z,813.17
2018-08-22T12:04:26.589Z,798.00
2018-08-22T12:06:55.120Z,801.33
2018-08-22T12:09:23.659Z,783.93
2018-08-22T12:11:52.139Z,807.17
2018-08-22T12:14:20.689Z,800.10
2018-08-22T12:16:49.170Z,814.93
2018-08-22T12:19:17.683Z,815.40
2018-08-22T12:21:46.173Z,826.37
2018-08-22T12:24:14.680Z,835.53
2018-08-22T12:26:43.143Z,822.73
2018-08-22T12:29:11.709Z,843.00
2018-08-22T12:31:40.172Z,836.87
2018-08-22T12:34:08.689Z,838.87
2018-08-22T12:36:37.163Z,854.00
2018-08-22T12:39:07.309Z,848.60
2018-08-22T12:41:35.881Z,851.23
2018-08-22T12:44:04.386Z,850.33
2018-08-22T12:46:32.940Z,847.40
2018-08-22T12:49:01.473Z,860.23
2018-08-22T12:51:29.973Z,862.87
2018-08-22T12:53:58.497Z,863.93
2018-08-22T12:56:27.063Z,849.63
2018-08-22T12:58:55.604Z,857.90
2018-08-22T13:01:24.139Z,862.00
2018-08-22T13:03:52.684Z,866.93
2018-08-22T13:06:21.216Z,860.77
2018-08-22T13:08:49.719Z,856.47
2018-08-22T13:11:18.245Z,851.17
2018-08-22T13:13:46.774Z,849.20
2018-08-22T13:16:15.336Z,856.23
2018-08-22T13:18:43.836Z,853.90
2018-08-22T13:21:12.350Z,857.07
2018-08-22T13:23:40.866Z,847.27
2018-08-22T13:26:09.409Z,875.70
2018-08-22T13:28:37.934Z,853.87
2018-08-22T13:31:06.443Z,851.63
2018-08-22T13:33:35.172Z,859.43
2018-08-22T13:36:03.706Z,860.90
2018-08-22T13:38:32.384Z,854.27
2018-08-22T13:41:00.871Z,852.53
2018-08-22T13:43:29.380Z,847.67
2018-08-22T13:45:57.852Z,852.13
2018-08-22T13:48:26.432Z,866.70
2018-08-22T13:50:54.972Z,878.37
2018-08-22T13:53:23.512Z,871.37
2018-08-22T13:55:52.067Z,851.50
2018-08-22T13:58:20.588Z,845.87
2018-08-22T14:00:49.113Z,820.83
2018-08-22T14:03:17.609Z,794.80
2018-08-22T14:05:46.129Z,813.77
2018-08-22T14:08:14.608Z,795.50
2018-08-22T14:10:43.104Z,794.90
2018-08-22T14:13:11.625Z,823.43
2018-08-22T14:15:40.291Z,793.10
2018-08-22T14:18:08.776Z,786.57
2018-08-22T14:20:37.312Z,801.00
2018-08-22T14:23:06.085Z,812.97
2018-08-22T14:25:34.580Z,811.00
2018-08-22T14:28:03.093Z,830.37
2018-08-22T14:30:31.613Z,825.23
2018-08-22T14:33:00.140Z,786.13
2018-08-22T14:35:28.636Z,778.17
2018-08-22T14:37:57.137Z,782.63
2018-08-22T14:40:25.651Z,761.00
2018-08-22T14:42:54.142Z,793.27
2018-08-22T14:45:22.657Z,834.27
2018-08-22T14:47:51.132Z,856.43
2018-08-22T14:50:19.653Z,848.07
2018-08-22T14:52:48.138Z,847.33
2018-08-22T14:55:16.641Z,851.87
2018-08-22T14:57:45.136Z,834.93
2018-08-22T15:00:13.688Z,844.70
2018-08-22T15:02:42.521Z,864.73
2018-08-22T15:05:10.993Z,815.07
2018-08-22T15:07:39.490Z,759.30
2018-08-22T15:10:08.393Z,750.13
2018-08-22T15:12:36.959Z,769.23
2018-08-22T15:15:05.485Z,802.70
2018-08-22T15:17:33.952Z,820.13
2018-08-22T15:20:02.477Z,843.77
2018-08-22T15:22:30.989Z,827.13
2018-08-22T15:24:59.515Z,850.40
2018-08-22T15:27:28.016Z,864.40
2018-08-22T15:29:56.617Z,881.40
2018-08-22T15:32:25.668Z,887.67
2018-08-22T15:34:55.333Z,887.77
2018-08-22T15:37:24.628Z,897.47
2018-08-22T15:39:53.144Z,878.17
2018-08-22T15:42:21.669Z,889.43
2018-08-22T15:44:50.215Z,899.60
2018-08-22T15:47:18.750Z,888.50
2018-08-22T15:49:47.407Z,866.73
2018-08-22T15:52:16.097Z,864.20
2018-08-22T15:54:57.324Z,870.57
2018-08-22T15:57:25.913Z,867.33
2018-08-22T15:59:54.453Z,959.60
2018-08-22T16:02:22.937Z,1098.47
2018-08-22T16:04:54.842Z,1205.43
2018-08-22T16:07:23.299Z,1410.37
2018-08-22T16:09:51.793Z,1550.33
2018-08-22T16:12:20.325Z,1686.97
2018-08-22T16:14:48.805Z,1635.83
2018-08-22T16:17:17.321Z,1669.30
2018-08-22T16:19:45.809Z,1565.17
2018-08-22T16:22:14.391Z,1542.03
2018-08-22T16:24:43.045Z,1413.50
2018-08-22T16:27:11.833Z,1348.27
2018-08-22T16:29:40.365Z,1358.57
2018-08-22T16:32:09.633Z,1353.20
2018-08-22T16:34:39.228Z,1357.13
2018-08-22T16:37:09.281Z,1316.57
2018-08-22T16:39:42.227Z,1329.80
2018-08-22T16:42:11.234Z,1368.00
2018-08-22T16:44:40.337Z,1367.00
2018-08-22T16:47:08.847Z,1405.30
2018-08-22T16:49:37.389Z,1426.50
2018-08-22T16:52:07.880Z,1390.63
2018-08-22T16:54:36.385Z,1351.20
2018-08-22T16:57:04.932Z,1411.83
2018-08-22T16:59:33.423Z,1388.10
2018-08-22T17:02:02.028Z,1422.37
2018-08-22T17:04:30.550Z,1386.73
2018-08-22T17:07:03.306Z,1406.53
2018-08-22T17:09:31.809Z,1383.57
2018-08-22T17:12:00.359Z,1373.77
2018-08-22T17:14:28.960Z,1356.97
2018-08-22T17:16:57.483Z,1408.13
2018-08-22T17:19:26.052Z,1400.07
2018-08-22T17:21:54.643Z,1370.00
2018-08-22T17:24:23.158Z,1344.30
2018-08-22T17:26:51.700Z,1378.70
2018-08-22T17:29:20.265Z,1426.37
2018-08-22T17:31:53.003Z,1374.83
2018-08-22T17:34:21.552Z,1378.43
2018-08-22T17:37:01.871Z,1374.90
2018-08-22T17:39:32.437Z,1377.07
2018-08-22T17:42:01.150Z,1396.40
2018-08-22T17:44:29.746Z,1353.27
2018-08-22T17:46:58.345Z,1366.27
2018-08-22T17:49:26.895Z,1346.87
2018-08-22T17:51:58.294Z,1300.73
2018-08-22T17:54:27.235Z,1304.93
2018-08-22T17:57:08.517Z,1330.23
2018-08-22T17:59:37.094Z,1357.40
2018-08-22T18:02:05.710Z,1312.40
2018-08-22T18:04:45.722Z,1336.80
2018-08-22T18:07:14.674Z,1333.97
2018-08-22T18:09:43.426Z,1355.80
2018-08-22T18:12:11.953Z,1380.03
2018-08-22T18:14:40.514Z,1370.97
2018-08-22T18:17:09.014Z,1379.50
2018-08-22T18:19:38.701Z,1388.47
2018-08-22T18:22:07.665Z,1383.90
2018-08-22T18:24:47.458Z,1407.50
2018-08-22T18:27:16.616Z,1381.87
2018-08-22T18:29:46.421Z,1385.30
2018-08-22T18:32:15.425Z,1334.20
2018-08-22T18:34:57.660Z,1303.30
2018-08-22T18:37:27.622Z,1245.07
2018-08-22T18:40:07.390Z,1199.17
2018-08-22T18:42:36.005Z,1187.03
2018-08-22T18:45:04.597Z,1130.30
2018-08-22T18:47:34.218Z,1126.43
2018-08-22T18:50:02.820Z,1118.37
2018-08-22T18:52:31.498Z,1115.60
2018-08-22T18:55:00.531Z,1107.07
2018-08-22T18:57:29.270Z,1092.03
2018-08-22T18:59:57.781Z,1075.33
2018-08-22T19:02:26.977Z,1075.90
2018-08-22T19:04:57.447Z,1086.40
2018-08-22T19:07:26.036Z,1108.73
2018-08-22T19:09:54.537Z,1119.57
2018-08-22T19:12:23.093Z,1119.77
2018-08-22T19:14:51.595Z,1139.03
2018-08-22T19:17:20.220Z,1149.00
2018-08-22T19:19:48.960Z,1151.07
2018-08-22T19:22:18.382Z,1155.10
2018-08-22T19:25:02.883Z,1133.90
2018-08-22T19:27:32.711Z,1144.43
2018-08-22T19:30:01.238Z,1138.80
2018-08-22T19:32:29.783Z,1124.87
2018-08-22T19:34:58.309Z,1120.57
2018-08-22T19:37:27.813Z,1087.30
2018-08-22T19:40:02.498Z,1105.73
2018-08-22T19:42:32.062Z,1091.20
2018-08-22T19:45:00.621Z,1086.90
2018-08-22T19:47:29.151Z,1085.97
2018-08-22T19:49:58.830Z,1087.20
2018-08-22T19:52:27.358Z,1071.30
2018-08-22T19:54:55.850Z,1082.83
2018-08-22T19:57:28.627Z,1078.03
2018-08-22T19:59:57.141Z,1070.10
2018-08-22T20:02:25.708Z,1071.40
2018-08-22T20:04:55.839Z,1070.77
2018-08-22T20:07:24.550Z,1079.60
2018-08-22T20:09:54.675Z,1061.07
2018-08-22T20:12:33.555Z,1047.80
2018-08-22T20:15:02.145Z,1031.00
2018-08-22T20:17:30.773Z,1048.80
2018-08-22T20:19:59.351Z,1036.40
2018-08-22T20:22:34.036Z,1021.57
2018-08-22T20:25:02.886Z,1013.10
2018-08-22T20:27:31.401Z,1018.03
2018-08-22T20:30:05.277Z,1008.77
2018-08-22T20:32:33.787Z,1002.83
2018-08-22T20:35:02.296Z,1007.10
2018-08-22T20:37:30.833Z,1010.60
2018-08-22T20:40:04.599Z,998.33
2018-08-22T20:42:33.259Z,991.43
2018-08-22T20:45:01.725Z,1005.80
2018-08-22T20:47:30.257Z,1017.20
2018-08-22T20:49:58.816Z,1045.77
2018-08-22T20:52:27.337Z,1044.90
2018-08-22T20:55:01.109Z,1071.27
2018-08-22T20:57:29.611Z,1057.50
2018-08-22T20:59:58.176Z,1073.50
2018-08-22T21:02:26.758Z,1064.80
2018-08-22T21:04:55.308Z,1070.13
2018-08-22T21:07:26.510Z,1048.07
2018-08-22T21:09:55.698Z,1063.43
2018-08-22T21:12:24.297Z,1035.90
2018-08-22T21:14:52.788Z,1009.23
2018-08-22T21:17:21.294Z,993.97
2018-08-22T21:19:50.247Z,987.97
2018-08-22T21:22:27.159Z,913.77
2018-08-22T21:24:58.435Z,942.63
2018-08-22T21:27:28.120Z,897.40
2018-08-22T21:29:56.643Z,841.13
2018-08-22T21:32:25.210Z,815.33
2018-08-22T21:34:54.456Z,806.33
2018-08-22T21:37:27.903Z,734.30
2018-08-22T21:39:56.573Z,712.47
2018-08-22T21:42:31.315Z,661.53
2018-08-22T21:44:59.864Z,651.67
2018-08-22T21:47:28.390Z,642.40
2018-08-22T21:49:56.970Z,645.53
2018-08-22T21:52:25.614Z,615.47
2018-08-22T21:54:55.191Z,609.43
2018-08-22T21:57:23.772Z,562.43
2018-08-22T21:59:57.838Z,530.87
2018-08-22T22:02:26.351Z,515.93
2018-08-22T22:04:55.395Z,531.00
2018-08-22T22:07:23.969Z,535.17
2018-08-22T22:09:57.246Z,493.73
2018-08-22T22:12:31.843Z,498.87
2018-08-22T22:15:00.330Z,502.20
2018-08-22T22:17:29.358Z,504.67
2018-08-22T22:19:57.928Z,485.83
2018-08-22T22:22:26.489Z,480.10
2018-08-22T22:25:00.248Z,457.57
2018-08-22T22:27:29.037Z,401.67
2018-08-22T22:30:02.318Z,356.00
2018-08-22T22:32:31.390Z,480.53
2018-08-22T22:34:59.941Z,526.03
2018-08-22T22:37:28.458Z,515.60
2018-08-22T22:39:57.006Z,504.43
2018-08-22T22:42:26.578Z,500.67
2018-08-22T22:44:56.141Z,551.33
2018-08-22T22:47:34.871Z,566.30
2018-08-22T22:50:04.249Z,596.87
2018-08-22T22:52:41.309Z,659.07
2018-08-22T22:55:10.637Z,765.67
2018-08-22T22:57:40.519Z,740.30
2018-08-22T23:00:10.613Z,682.13
2018-08-22T23:02:39.181Z,718.07
2018-08-22T23:05:08.437Z,703.47
2018-08-22T23:07:38.949Z,684.73
2018-08-22T23:10:09.101Z,632.47
2018-08-22T23:12:43.791Z,542.90
2018-08-22T23:15:14.436Z,491.87
2018-08-22T23:17:43.428Z,409.93
2018-08-22T23:20:33.446Z,355.30
2018-08-22T23:23:01.964Z,348.10
2018-08-22T23:25:30.834Z,354.50
2018-08-22T23:27:59.426Z,331.47
2018-08-22T23:30:33.332Z,347.00
2018-08-22T23:33:01.854Z,340.40
2018-08-22T23:35:31.725Z,358.50
2018-08-22T23:38:02.537Z,373.33
2018-08-22T23:40:32.357Z,367.73
2018-08-22T23:43:00.883Z,297.00
2018-08-22T23:45:29.555Z,209.93
2018-08-22T23:47:58.049Z,181.93
2018-08-22T23:50:36.567Z,184.87
2018-08-22T23:53:05.303Z,162.60
2018-08-22T23:55:33.824Z,175.17
2018-08-22T23:58:02.377Z,178.20
